Time;durP1;ratioP1;P1;durP2;ratioP2;P2;SDS_P1;SDS_P2;PMS_P1;PMS_P2;Temp;Humidity;BMP_temperature;BMP_pressure;BME280_temperature;BME280_humidity;BME280_pressure;Samples;Min_cycle;Max_cycle;Signal;HPM_P1;HPM_P2
2023/12/10 00:00:30;;;;;;;12.55;2.58;;;9.20;99.90;;;;;;5043175;28;20046;-91
2023/12/10 00:02:55;;;;;;;13.43;2.70;;;9.10;99.90;;;;;;5058400;28;20120;-90
2023/12/10 00:05:21;;;;;;;21.30;3.17;;;9.10;99.90;;;;;;5040344;28;20443;-91
2023/12/10 00:07:47;;;;;;;7.38;1.67;;;9.10;99.90;;;;;;5060273;28;20063;-90
2023/12/10 00:10:12;;;;;;;13.10;2.25;;;9.10;99.90;;;;;;5060917;28;20090;-91
2023/12/10 00:12:39;;;;;;;16.42;3.25;;;9.20;99.90;;;;;;5070570;28;20033;-91
2023/12/10 00:15:05;;;;;;;9.27;1.48;;;9.20;99.90;;;;;;5054726;28;20072;-91
2023/12/10 00:17:30;;;;;;;16.42;2.40;;;9.20;99.90;;;;;;5071109;28;20041;-91
2023/12/10 00:19:56;;;;;;;9.13;2.20;;;9.20;99.90;;;;;;5070818;28;20046;-91
2023/12/10 00:22:22;;;;;;;15.77;2.38;;;9.20;99.90;;;;;;5070836;28;20036;-90
2023/12/10 00:24:48;;;;;;;13.10;2.03;;;9.20;99.90;;;;;;5070818;28;20127;-91
2023/12/10 00:27:13;;;;;;;14.75;4.60;;;9.20;99.90;;;;;;5054444;28;20458;-92
2023/12/10 00:29:39;;;;;;;10.63;1.80;;;9.20;99.90;;;;;;5070674;28;20529;-91
2023/12/10 00:32:05;;;;;;;13.38;1.38;;;9.20;99.90;;;;;;5054355;28;20086;-92
2023/12/10 00:34:30;;;;;;;15.90;3.90;;;9.20;99.90;;;;;;5053842;28;20036;-91
2023/12/10 00:36:56;;;;;;;10.18;2.00;;;9.10;99.90;;;;;;5054406;28;20115;-91
2023/12/10 00:39:22;;;;;;;5.90;1.33;;;9.10;99.90;;;;;;5054052;28;20093;-91
2023/12/10 00:41:47;;;;;;;8.77;1.60;;;9.10;99.90;;;;;;5071412;28;20051;-91
2023/12/10 00:44:13;;;;;;;7.78;1.65;;;9.10;99.90;;;;;;5070532;28;20047;-91
2023/12/10 00:46:38;;;;;;;15.90;2.38;;;9.10;99.90;;;;;;5054290;28;20127;-91
2023/12/10 00:49:04;;;;;;;12.32;3.17;;;9.10;99.90;;;;;;5071450;28;20130;-91
2023/12/10 00:51:30;;;;;;;11.60;2.35;;;9.10;99.90;;;;;;5060141;28;20528;-90
2023/12/10 00:53:55;;;;;;;10.88;1.80;;;9.20;99.90;;;;;;5071442;28;20161;-91
2023/12/10 00:56:21;;;;;;;7.75;2.15;;;9.20;99.90;;;;;;5053644;28;20040;-91
2023/12/10 00:58:47;;;;;;;11.25;2.55;;;9.20;99.90;;;;;;5053973;28;20051;-91
2023/12/10 01:01:13;;;;;;;11.98;2.03;;;9.20;99.90;;;;;;5053726;28;20189;-91
2023/12/10 01:03:38;;;;;;;10.80;2.00;;;9.20;99.90;;;;;;5070873;28;20040;-90
2023/12/10 01:06:05;;;;;;;4.53;1.30;;;9.30;99.90;;;;;;5053544;28;20058;-90
2023/12/10 01:08:31;;;;;;;12.85;2.25;;;9.30;99.90;;;;;;5053078;28;20070;-90
2023/12/10 01:10:58;;;;;;;10.05;1.95;;;9.20;99.90;;;;;;5069886;28;20618;-91
2023/12/10 01:13:24;;;;;;;8.35;1.83;;;9.20;99.90;;;;;;5053024;28;20076;-91
2023/12/10 01:15:56;;;;;;;9.48;2.72;;;9.10;99.90;;;;;;5053654;28;20068;-91
2023/12/10 01:18:22;;;;;;;11.25;2.65;;;9.00;99.90;;;;;;5070430;28;20040;-91
2023/12/10 01:20:48;;;;;;;3.70;1.52;;;9.00;99.90;;;;;;5069817;28;20419;-91
2023/12/10 01:23:17;;;;;;;9.20;2.25;;;8.90;99.90;;;;;;5052996;28;20040;-91
2023/12/10 01:25:43;;;;;;;10.75;2.90;;;8.90;99.90;;;;;;5052862;28;20040;-91
2023/12/10 01:28:09;;;;;;;12.52;2.50;;;8.80;99.90;;;;;;5052829;28;20555;-90
2023/12/10 01:30:35;;;;;;;34.40;4.57;;;8.80;99.90;;;;;;5052865;28;20068;-90
2023/12/10 01:33:01;;;;;;;9.27;2.83;;;8.70;99.90;;;;;;5052799;28;20071;-90
2023/12/10 01:35:27;;;;;;;8.73;1.42;;;8.70;99.90;;;;;;5052356;28;20123;-90
2023/12/10 01:37:53;;;;;;;3.20;1.02;;;8.60;99.90;;;;;;5053046;28;20465;-90
2023/12/10 01:40:21;;;;;;;11.63;2.47;;;8.70;99.90;;;;;;5053194;28;20048;-90
2023/12/10 01:42:47;;;;;;;9.60;1.83;;;8.70;99.90;;;;;;5052972;28;20071;-91
2023/12/10 01:45:14;;;;;;;12.70;1.70;;;8.70;99.90;;;;;;5052721;28;20531;-90
2023/12/10 01:47:42;;;;;;;7.63;1.38;;;8.60;99.90;;;;;;5069716;28;20492;-91
2023/12/10 01:50:11;;;;;;;13.98;2.20;;;8.60;99.90;;;;;;5052801;28;20036;-90
2023/12/10 01:52:38;;;;;;;10.07;2.60;;;8.60;99.90;;;;;;5068682;28;20098;-91
2023/12/10 01:55:05;;;;;;;9.15;1.27;;;8.50;99.90;;;;;;5052869;28;20105;-91
2023/12/10 01:57:33;;;;;;;11.75;1.55;;;8.50;99.90;;;;;;5052654;28;20040;-91
2023/12/10 01:59:59;;;;;;;8.00;1.50;;;8.50;99.90;;;;;;5069733;28;20119;-91
2023/12/10 02:02:26;;;;;;;10.13;1.92;;;8.60;99.90;;;;;;5052846;28;20515;-91
2023/12/10 02:04:54;;;;;;;8.02;1.58;;;8.50;99.90;;;;;;5052732;28;20040;-91
2023/12/10 02:07:23;;;;;;;7.22;1.38;;;8.50;99.90;;;;;;5069263;28;20051;-91
2023/12/10 02:09:50;;;;;;;11.50;2.42;;;8.60;99.90;;;;;;5052782;28;20191;-91
2023/12/10 02:12:19;;;;;;;8.05;1.58;;;8.50;99.90;;;;;;5052940;28;20077;-91
2023/12/10 02:14:44;;;;;;;7.80;1.42;;;8.50;99.90;;;;;;5069117;28;20060;-91
2023/12/10 02:17:10;;;;;;;16.38;2.17;;;8.50;99.90;;;;;;5069778;28;20055;-91
2023/12/10 02:19:36;;;;;;;7.38;1.92;;;8.50;99.90;;;;;;5069053;28;20470;-91
2023/12/10 02:22:04;;;;;;;9.02;1.73;;;8.40;99.90;;;;;;5069762;28;20078;-91
2023/12/10 02:24:48;;;;;;;9.05;2.35;;;8.40;99.90;;;;;;5052345;28;20055;-91
2023/12/10 02:27:14;;;;;;;11.60;2.53;;;8.40;99.90;;;;;;5050834;28;20040;-91
2023/12/10 02:29:39;;;;;;;13.90;1.80;;;8.50;99.90;;;;;;5039484;28;20063;-91
2023/12/10 02:32:06;;;;;;;9.88;1.77;;;8.50;99.90;;;;;;5051956;28;20131;-91
2023/12/10 02:34:31;;;;;;;9.68;2.28;;;8.50;99.90;;;;;;5050055;28;20040;-92
2023/12/10 02:36:57;;;;;;;6.63;1.63;;;8.50;99.90;;;;;;5051423;28;20033;-91
2023/12/10 02:39:22;;;;;;;6.93;1.90;;;8.40;99.90;;;;;;5052711;28;20043;-91
2023/12/10 02:41:48;;;;;;;9.07;1.65;;;8.40;99.90;;;;;;5052801;28;20048;-91
2023/12/10 02:44:14;;;;;;;11.00;2.88;;;8.40;99.90;;;;;;5052271;28;20043;-91
2023/12/10 02:46:48;;;;;;;8.30;1.45;;;8.40;99.90;;;;;;5052733;28;20131;-91
2023/12/10 02:49:14;;;;;;;11.45;2.63;;;8.40;99.90;;;;;;5052693;28;20036;-91
2023/12/10 02:51:40;;;;;;;13.25;2.55;;;8.40;99.90;;;;;;5052841;28;20154;-91
2023/12/10 02:54:06;;;;;;;13.18;2.30;;;8.40;99.90;;;;;;5069110;28;20419;-91
2023/12/10 02:56:32;;;;;;;7.03;1.50;;;8.40;99.90;;;;;;5052340;28;20032;-91
2023/12/10 02:58:58;;;;;;;15.82;3.13;;;8.50;99.90;;;;;;5052474;28;20040;-91
2023/12/10 03:01:24;;;;;;;8.45;1.65;;;8.50;99.90;;;;;;5052583;28;20461;-91
2023/12/10 03:03:49;;;;;;;12.38;2.50;;;8.40;99.90;;;;;;5052568;28;20547;-91
2023/12/10 03:06:15;;;;;;;7.40;1.60;;;8.40;99.90;;;;;;5056087;28;20037;-91
2023/12/10 03:08:40;;;;;;;7.10;1.83;;;8.40;99.90;;;;;;5056329;28;20404;-91
2023/12/10 03:11:06;;;;;;;8.98;1.90;;;8.40;99.90;;;;;;5059414;28;20048;-91
2023/12/10 03:13:32;;;;;;;13.18;2.28;;;8.40;99.90;;;;;;5058607;28;20091;-90
2023/12/10 03:15:57;;;;;;;11.43;1.80;;;8.40;99.90;;;;;;5055578;28;20181;-90
2023/12/10 03:18:24;;;;;;;13.10;3.10;;;8.40;99.90;;;;;;5055885;28;20041;-91
2023/12/10 03:20:50;;;;;;;7.97;1.83;;;8.40;99.90;;;;;;5055526;28;20120;-90
2023/12/10 03:23:16;;;;;;;11.05;2.05;;;8.40;99.90;;;;;;5071948;28;20077;-91
2023/12/10 03:25:42;;;;;;;11.20;1.92;;;8.40;99.90;;;;;;5055255;28;20090;-90
2023/12/10 03:28:08;;;;;;;9.68;1.98;;;8.40;99.90;;;;;;5055496;28;20044;-90
2023/12/10 03:30:33;;;;;;;12.10;2.15;;;8.40;99.90;;;;;;5054918;28;20044;-91
2023/12/10 03:32:59;;;;;;;8.70;1.83;;;8.40;99.90;;;;;;5055239;28;20043;-90
2023/12/10 03:35:24;;;;;;;9.15;2.42;;;8.30;99.90;;;;;;5054992;28;20120;-90
2023/12/10 03:37:50;;;;;;;13.60;2.58;;;8.30;99.90;;;;;;5071941;28;20086;-90
2023/12/10 03:40:16;;;;;;;9.65;2.25;;;8.20;99.90;;;;;;5055116;28;20407;-90
2023/12/10 03:42:41;;;;;;;11.27;2.35;;;8.20;99.90;;;;;;5072031;28;20033;-91
2023/12/10 03:45:07;;;;;;;5.60;1.23;;;8.20;99.90;;;;;;5054807;28;20519;-91
2023/12/10 03:47:33;;;;;;;12.40;2.00;;;8.20;99.90;;;;;;5055259;28;20071;-90
2023/12/10 03:49:59;;;;;;;3.65;1.13;;;8.20;99.90;;;;;;5055126;28;20556;-90
2023/12/10 03:52:24;;;;;;;5.43;1.33;;;8.20;99.90;;;;;;5054940;28;20033;-90
2023/12/10 03:54:50;;;;;;;4.32;1.23;;;8.20;99.90;;;;;;5054334;28;20024;-91
2023/12/10 03:57:15;;;;;;;7.88;1.25;;;8.20;99.90;;;;;;5055050;28;20046;-90
2023/12/10 03:59:41;;;;;;;3.63;1.17;;;8.20;99.90;;;;;;5054867;28;20408;-91
2023/12/10 04:02:07;;;;;;;7.22;1.55;;;8.20;99.90;;;;;;5054608;28;20032;-90
2023/12/10 04:04:33;;;;;;;4.93;1.08;;;8.20;99.90;;;;;;5054772;28;20089;-91
2023/12/10 04:06:58;;;;;;;2.80;0.52;;;8.10;99.90;;;;;;5054695;28;20052;-90
2023/12/10 04:09:24;;;;;;;5.53;0.98;;;8.10;99.90;;;;;;5054497;28;20056;-91
2023/12/10 04:11:50;;;;;;;6.35;1.67;;;8.10;99.90;;;;;;5054900;28;20036;-91
2023/12/10 04:14:15;;;;;;;8.65;0.98;;;8.10;99.90;;;;;;5070802;28;20036;-90
2023/12/10 04:16:41;;;;;;;9.63;1.58;;;8.10;99.90;;;;;;5053868;28;20098;-90
2023/12/10 04:19:07;;;;;;;11.35;1.85;;;8.10;99.90;;;;;;5054397;28;20086;-90
2023/12/10 04:21:32;;;;;;;11.82;1.90;;;8.10;99.90;;;;;;5054399;28;20032;-90
2023/12/10 04:23:58;;;;;;;7.78;1.73;;;8.10;99.90;;;;;;5054070;28;20037;-90
2023/12/10 04:26:24;;;;;;;8.32;1.58;;;8.10;99.90;;;;;;5053954;28;20039;-90
2023/12/10 04:28:49;;;;;;;8.65;2.25;;;8.10;99.90;;;;;;5054068;28;20067;-90
2023/12/10 04:31:15;;;;;;;9.52;2.28;;;8.10;99.90;;;;;;5070638;28;20452;-91
2023/12/10 04:33:44;;;;;;;3.67;1.52;;;8.10;99.90;;;;;;5053661;28;20043;-90
2023/12/10 04:36:11;;;;;;;8.18;1.48;;;8.10;99.90;;;;;;5070582;28;20032;-91
2023/12/10 04:38:37;;;;;;;5.75;1.35;;;8.10;99.90;;;;;;5054016;28;20053;-90
2023/12/10 04:41:03;;;;;;;4.35;1.40;;;8.10;99.90;;;;;;5054042;28;20036;-91
2023/12/10 04:43:29;;;;;;;17.70;2.83;;;8.10;99.90;;;;;;5053592;28;20512;-91
2023/12/10 04:45:55;;;;;;;4.07;1.42;;;8.20;99.90;;;;;;5053889;28;20034;-90
2023/12/10 04:48:21;;;;;;;5.90;1.50;;;8.20;99.90;;;;;;5053859;28;20457;-91
2023/12/10 04:50:47;;;;;;;10.50;2.20;;;8.20;99.90;;;;;;5053807;28;20049;-91
2023/12/10 04:53:12;;;;;;;7.53;1.52;;;8.20;99.90;;;;;;5054147;28;20040;-91
2023/12/10 04:55:38;;;;;;;7.43;1.85;;;8.20;99.90;;;;;;5070258;28;20032;-90
2023/12/10 04:58:03;;;;;;;8.73;1.50;;;8.20;99.90;;;;;;5053606;28;20033;-91
2023/12/10 05:00:29;;;;;;;9.02;1.98;;;8.30;99.90;;;;;;5053527;28;20569;-91
2023/12/10 05:02:54;;;;;;;9.73;1.45;;;8.30;99.90;;;;;;5070018;28;20036;-91
2023/12/10 05:05:20;;;;;;;5.80;1.75;;;8.20;99.90;;;;;;5053508;28;20123;-91
2023/12/10 05:07:46;;;;;;;4.20;1.38;;;8.20;99.90;;;;;;5053434;28;20271;-91
2023/12/10 05:10:12;;;;;;;6.28;1.15;;;8.20;99.90;;;;;;5053250;28;20036;-91
2023/12/10 05:12:37;;;;;;;8.70;1.83;;;8.30;99.90;;;;;;5053237;28;20044;-91
2023/12/10 05:15:03;;;;;;;11.32;2.33;;;8.30;99.90;;;;;;5053654;28;20036;-91
2023/12/10 05:17:29;;;;;;;7.18;2.13;;;8.30;99.90;;;;;;5053288;28;20089;-91
2023/12/10 05:19:55;;;;;;;6.93;1.70;;;8.30;99.90;;;;;;5070215;28;20048;-91
2023/12/10 05:22:21;;;;;;;10.63;2.60;;;8.30;99.90;;;;;;5053287;28;20557;-91
2023/12/10 05:24:47;;;;;;;5.18;1.58;;;8.40;99.90;;;;;;5052985;28;20045;-90
2023/12/10 05:27:13;;;;;;;11.35;2.28;;;8.30;99.90;;;;;;5069310;28;20043;-90
2023/12/10 05:29:39;;;;;;;8.63;1.85;;;8.30;99.90;;;;;;5053649;28;20169;-91
2023/12/10 05:32:04;;;;;;;7.55;1.85;;;8.30;99.90;;;;;;5073666;28;20028;-91
2023/12/10 05:34:30;;;;;;;7.57;1.80;;;8.40;99.90;;;;;;5060765;28;20036;-90
2023/12/10 05:36:56;;;;;;;9.05;2.08;;;8.30;99.90;;;;;;5052789;28;20028;-90
2023/12/10 05:39:21;;;;;;;8.23;2.17;;;8.30;99.90;;;;;;5069778;28;20101;-91
2023/12/10 05:41:47;;;;;;;12.25;2.28;;;8.40;99.90;;;;;;5065824;28;20055;-89
2023/12/10 05:44:12;;;;;;;7.25;1.80;;;8.30;99.90;;;;;;5057417;28;20049;-90
2023/12/10 05:46:38;;;;;;;5.15;1.52;;;8.40;99.90;;;;;;5068854;28;20094;-90
2023/12/10 05:49:04;;;;;;;9.55;2.30;;;8.40;99.90;;;;;;5076764;28;20055;-90
2023/12/10 05:51:29;;;;;;;9.95;1.55;;;8.40;99.90;;;;;;5045679;28;20082;-90
2023/12/10 05:53:56;;;;;;;9.65;1.80;;;8.40;99.90;;;;;;5069154;28;20044;-90
2023/12/10 05:56:22;;;;;;;5.55;1.27;;;8.50;99.90;;;;;;5045520;28;20033;-90
2023/12/10 05:58:48;;;;;;;4.82;1.23;;;8.50;99.90;;;;;;5044616;28;20039;-90
2023/12/10 06:01:14;;;;;;;10.93;1.80;;;8.50;99.90;;;;;;5053024;28;20033;-90
2023/12/10 06:03:40;;;;;;;8.73;1.65;;;8.40;99.90;;;;;;5069278;28;20044;-90
2023/12/10 06:06:06;;;;;;;6.97;1.88;;;8.50;99.90;;;;;;5069048;28;20123;-90
2023/12/10 06:08:31;;;;;;;8.52;1.38;;;8.50;99.90;;;;;;5052559;28;20037;-90
2023/12/10 06:10:57;;;;;;;6.85;1.92;;;8.50;99.90;;;;;;5052542;28;20041;-90
2023/12/10 06:13:22;;;;;;;8.15;2.50;;;8.50;99.90;;;;;;5052763;28;20037;-90
2023/12/10 06:15:48;;;;;;;8.45;1.85;;;8.60;99.90;;;;;;5052725;28;20205;-91
2023/12/10 06:18:14;;;;;;;8.30;1.48;;;8.60;99.90;;;;;;5069260;28;20082;-91
2023/12/10 06:20:40;;;;;;;5.40;1.25;;;8.60;99.90;;;;;;5069434;28;20037;-91
2023/12/10 06:23:05;;;;;;;7.28;1.67;;;8.60;99.90;;;;;;5052670;28;20511;-91
2023/12/10 06:25:31;;;;;;;6.75;1.85;;;8.60;99.90;;;;;;5068778;28;20041;-90
2023/12/10 06:27:56;;;;;;;6.88;1.40;;;8.60;99.90;;;;;;5069075;28;20040;-90
2023/12/10 06:30:23;;;;;;;6.28;1.58;;;8.70;99.90;;;;;;5069054;28;20502;-91
2023/12/10 06:32:49;;;;;;;7.85;1.63;;;8.70;99.90;;;;;;5052532;28;20032;-91
2023/12/10 06:35:14;;;;;;;8.10;1.83;;;8.70;99.90;;;;;;5052500;28;20052;-90
2023/12/10 06:37:41;;;;;;;5.45;1.17;;;8.70;99.90;;;;;;5052134;28;20037;-90
2023/12/10 06:40:07;;;;;;;4.60;0.90;;;8.70;99.90;;;;;;5072195;28;20044;-90
2023/12/10 06:42:34;;;;;;;5.65;1.55;;;8.70;99.90;;;;;;5056324;28;20041;-90
2023/12/10 06:45:00;;;;;;;12.73;2.28;;;8.70;99.90;;;;;;5056129;28;20119;-90
2023/12/10 06:47:26;;;;;;;7.95;1.63;;;8.70;99.90;;;;;;5056182;28;20046;-90
2023/12/10 06:49:51;;;;;;;8.05;1.90;;;8.60;99.90;;;;;;5055859;28;20036;-90
2023/12/10 06:52:17;;;;;;;13.00;2.00;;;8.60;99.90;;;;;;5056062;28;20040;-90
2023/12/10 06:54:43;;;;;;;7.78;1.95;;;8.60;99.90;;;;;;5055554;28;20082;-90
2023/12/10 06:57:09;;;;;;;7.18;1.55;;;8.60;99.90;;;;;;5055356;28;20036;-90
2023/12/10 06:59:35;;;;;;;6.85;2.35;;;8.60;99.90;;;;;;5072419;28;20048;-90
2023/12/10 07:02:00;;;;;;;13.38;1.95;;;8.60;99.90;;;;;;5055792;28;20040;-90
2023/12/10 07:04:26;;;;;;;11.40;2.33;;;8.60;99.90;;;;;;5055715;28;20461;-89
2023/12/10 07:06:52;;;;;;;9.43;2.90;;;8.60;99.90;;;;;;5055637;28;20072;-90
2023/12/10 07:09:17;;;;;;;6.47;1.35;;;8.60;99.90;;;;;;5055558;28;20032;-90
2023/12/10 07:11:43;;;;;;;5.35;1.50;;;8.50;99.90;;;;;;5072158;28;20550;-90
2023/12/10 07:14:09;;;;;;;8.20;2.83;;;8.60;99.90;;;;;;5055818;28;20068;-90
2023/12/10 07:16:34;;;;;;;12.70;1.45;;;8.50;99.90;;;;;;5071943;28;20037;-89
2023/12/10 07:19:00;;;;;;;9.95;2.13;;;8.60;99.90;;;;;;5055209;28;20064;-90
2023/12/10 07:21:25;;;;;;;8.65;1.10;;;8.60;99.90;;;;;;5055935;28;20028;-90
2023/12/10 07:23:51;;;;;;;9.70;1.45;;;8.50;99.90;;;;;;5055525;28;20664;-90
2023/12/10 07:26:23;;;;;;;3.92;1.30;;;8.60;99.90;;;;;;5055233;28;20045;-90
2023/12/10 07:28:51;;;;;;;6.45;1.83;;;8.60;99.90;;;;;;5071757;28;20120;-91
2023/12/10 07:31:17;;;;;;;9.13;2.40;;;8.60;99.90;;;;;;5055066;28;20041;-90
2023/12/10 07:33:43;;;;;;;7.85;1.33;;;8.60;99.90;;;;;;5053420;28;20480;-89
2023/12/10 07:36:09;;;;;;;7.80;1.33;;;8.60;99.90;;;;;;5047026;28;20065;-90
2023/12/10 07:38:34;;;;;;;8.00;1.90;;;8.60;99.90;;;;;;5054765;28;20044;-90
2023/12/10 07:41:00;;;;;;;9.00;1.63;;;8.60;99.90;;;;;;5072111;28;20081;-90
2023/12/10 07:43:26;;;;;;;4.38;1.02;;;8.60;99.90;;;;;;5055290;28;20621;-90
2023/12/10 07:45:51;;;;;;;8.65;2.20;;;8.60;99.90;;;;;;5071910;28;20451;-90
2023/12/10 07:48:19;;;;;;;5.18;1.55;;;8.60;99.90;;;;;;5055431;28;20048;-90
2023/12/10 07:50:44;;;;;;;3.33;1.42;;;8.60;99.90;;;;;;5055438;28;20499;-90
2023/12/10 07:53:10;;;;;;;4.50;1.00;;;8.60;99.90;;;;;;5055511;28;20051;-91
2023/12/10 07:55:36;;;;;;;6.05;1.20;;;8.60;99.90;;;;;;5055014;28;20040;-91
2023/12/10 07:58:01;;;;;;;6.13;1.58;;;8.50;99.90;;;;;;5055278;28;20047;-90
2023/12/10 08:00:27;;;;;;;7.22;1.45;;;8.60;99.90;;;;;;5071998;28;20132;-90
2023/12/10 08:02:53;;;;;;;4.03;1.30;;;8.60;99.90;;;;;;5055281;28;20427;-90
2023/12/10 08:05:18;;;;;;;7.88;1.42;;;8.60;99.90;;;;;;5054909;28;20044;-90
2023/12/10 08:07:44;;;;;;;4.93;1.15;;;8.60;99.90;;;;;;5054256;28;20047;-91
2023/12/10 08:10:10;;;;;;;7.22;1.40;;;8.60;99.90;;;;;;5054192;28;20082;-90
2023/12/10 08:12:35;;;;;;;5.93;0.98;;;8.60;99.90;;;;;;5059679;28;20128;-89
2023/12/10 08:15:01;;;;;;;4.68;1.38;;;8.60;99.90;;;;;;5040903;28;20506;-89
2023/12/10 08:17:27;;;;;;;4.47;1.13;;;8.50;99.90;;;;;;5050748;28;20029;-90
2023/12/10 08:19:52;;;;;;;5.20;0.85;;;8.60;99.90;;;;;;5054495;28;20041;-90
2023/12/10 08:22:18;;;;;;;8.05;2.25;;;8.60;99.90;;;;;;5071022;28;20094;-89
2023/12/10 08:24:43;;;;;;;5.03;1.00;;;8.60;99.90;;;;;;5054475;28;20047;-90
2023/12/10 08:27:09;;;;;;;1.88;0.50;;;8.60;99.90;;;;;;5054122;28;20131;-90
2023/12/10 08:29:35;;;;;;;7.18;1.40;;;8.60;99.90;;;;;;5054009;28;20041;-90
2023/12/10 08:32:01;;;;;;;6.20;1.40;;;8.50;99.90;;;;;;5070319;28;20145;-89
2023/12/10 08:34:26;;;;;;;8.60;1.42;;;8.50;99.90;;;;;;5052799;28;20040;-90
2023/12/10 08:36:52;;;;;;;9.07;2.35;;;8.50;99.90;;;;;;5053674;28;20035;-89
2023/12/10 08:39:18;;;;;;;6.10;1.80;;;8.50;99.90;;;;;;5053730;28;20562;-89
2023/12/10 08:41:43;;;;;;;6.47;1.50;;;8.50;99.90;;;;;;5054035;28;20045;-89
2023/12/10 08:44:09;;;;;;;7.28;1.52;;;8.50;99.90;;;;;;5054176;28;20042;-89
2023/12/10 08:46:34;;;;;;;3.25;1.10;;;8.50;99.90;;;;;;5070453;28;20036;-89
2023/12/10 08:49:00;;;;;;;8.50;2.13;;;8.50;99.90;;;;;;5053709;28;20064;-90
2023/12/10 08:51:26;;;;;;;5.75;1.13;;;8.60;99.90;;;;;;5049001;28;20126;-89
2023/12/10 08:53:51;;;;;;;11.90;2.55;;;8.50;99.90;;;;;;5043272;28;20158;-89
2023/12/10 08:56:17;;;;;;;10.07;1.77;;;8.50;99.90;;;;;;5053864;28;20032;-90
2023/12/10 08:58:42;;;;;;;6.72;1.42;;;8.50;99.90;;;;;;5053408;28;20109;-90
2023/12/10 09:01:08;;;;;;;14.20;1.92;;;8.50;99.90;;;;;;5069929;28;20041;-89
2023/12/10 09:03:34;;;;;;;10.85;1.83;;;8.40;99.90;;;;;;5052766;28;20068;-90
2023/12/10 09:06:00;;;;;;;6.82;1.55;;;8.40;99.90;;;;;;5049753;28;20041;-90
2023/12/10 09:08:26;;;;;;;14.63;3.30;;;8.40;99.90;;;;;;5042739;28;20033;-90
2023/12/10 09:10:53;;;;;;;7.82;1.25;;;8.40;99.90;;;;;;5041622;28;20515;-90
2023/12/10 09:13:19;;;;;;;11.60;2.20;;;8.40;99.90;;;;;;5056271;28;20386;-90
2023/12/10 09:15:45;;;;;;;12.40;2.10;;;8.40;99.90;;;;;;5058045;28;20502;-89
2023/12/10 09:18:10;;;;;;;5.78;1.27;;;8.40;99.90;;;;;;5054575;28;20131;-89
2023/12/10 09:20:36;;;;;;;5.53;1.08;;;8.40;99.90;;;;;;5038184;28;20045;-90
2023/12/10 09:23:03;;;;;;;7.43;1.35;;;8.40;99.90;;;;;;5041887;28;20124;-90
2023/12/10 09:25:28;;;;;;;6.95;1.40;;;8.40;99.90;;;;;;5041759;28;20111;-89
2023/12/10 09:27:56;;;;;;;7.78;1.48;;;8.40;99.90;;;;;;5041052;28;20040;-90
2023/12/10 09:30:23;;;;;;;11.82;2.38;;;8.40;99.90;;;;;;5054817;28;20049;-90
2023/12/10 09:32:48;;;;;;;15.48;2.53;;;8.40;99.90;;;;;;5055104;28;20049;-90
2023/12/10 09:35:14;;;;;;;26.88;4.57;;;8.50;99.90;;;;;;5038652;28;20115;-90
2023/12/10 09:37:42;;;;;;;11.85;2.95;;;8.50;99.90;;;;;;5040172;28;20090;-90
2023/12/10 09:40:11;;;;;;;11.50;2.30;;;8.50;99.90;;;;;;5037961;28;20045;-90
2023/12/10 09:42:36;;;;;;;5.03;1.70;;;8.60;99.90;;;;;;5059021;28;20036;-89
2023/12/10 09:45:02;;;;;;;11.25;2.55;;;8.60;99.90;;;;;;5053833;28;20111;-89
2023/12/10 09:47:29;;;;;;;7.80;1.83;;;8.60;99.90;;;;;;5056022;28;20044;-90
2023/12/10 09:49:59;;;;;;;29.30;1.98;;;8.70;99.90;;;;;;5042665;28;20840;-91
2023/12/10 09:52:24;;;;;;;12.25;2.35;;;8.60;99.90;;;;;;5040118;28;20408;-90
2023/12/10 09:54:53;;;;;;;9.40;1.55;;;8.60;99.90;;;;;;5040225;28;20480;-90
2023/12/10 09:57:20;;;;;;;12.85;3.13;;;8.60;99.90;;;;;;5056804;28;20496;-90
2023/12/10 09:59:46;;;;;;;14.25;2.83;;;8.60;99.90;;;;;;5058811;28;20040;-90
2023/12/10 10:02:16;;;;;;;17.55;2.47;;;8.60;99.90;;;;;;5040798;28;20724;-90
2023/12/10 10:04:45;;;;;;;15.82;2.75;;;8.50;99.90;;;;;;5056668;28;20040;-89
2023/12/10 10:07:13;;;;;;;11.45;2.08;;;8.50;99.90;;;;;;5037870;28;20037;-89
2023/12/10 10:09:39;;;;;;;10.35;2.13;;;8.50;99.90;;;;;;5038236;28;20117;-89
2023/12/10 10:12:07;;;;;;;11.40;2.63;;;8.50;99.90;;;;;;5035585;28;20068;-90
2023/12/10 10:14:33;;;;;;;11.55;2.83;;;8.50;99.90;;;;;;5059941;28;20570;-90
2023/12/10 10:16:59;;;;;;;14.85;3.28;;;8.60;99.90;;;;;;5059652;28;20476;-90
2023/12/10 10:19:26;;;;;;;10.25;2.20;;;8.60;99.90;;;;;;5074764;28;20050;-90
2023/12/10 10:21:52;;;;;;;10.88;2.55;;;8.60;99.90;;;;;;5073892;28;20082;-92
2023/12/10 10:24:18;;;;;;;17.25;2.78;;;8.70;99.90;;;;;;5056354;28;20044;-90
2023/12/10 10:26:44;;;;;;;6.00;1.60;;;8.70;99.90;;;;;;5056198;28;20043;-90
2023/12/10 10:29:10;;;;;;;8.82;1.80;;;8.70;99.90;;;;;;5056353;28;20044;-90
2023/12/10 10:31:35;;;;;;;13.90;2.50;;;8.70;99.90;;;;;;5055716;28;20491;-90
2023/12/10 10:34:03;;;;;;;13.07;1.70;;;8.70;99.90;;;;;;5056512;28;20041;-90
2023/12/10 10:36:29;;;;;;;12.00;3.47;;;8.80;99.90;;;;;;5073089;28;20032;-90
2023/12/10 10:38:56;;;;;;;10.77;1.45;;;8.80;99.90;;;;;;5048112;28;20450;-90
2023/12/10 10:41:22;;;;;;;6.85;2.20;;;8.80;99.90;;;;;;5056482;28;20094;-90
2023/12/10 10:43:48;;;;;;;7.60;1.77;;;8.80;99.90;;;;;;5072720;28;20055;-91
2023/12/10 10:46:19;;;;;;;7.80;1.90;;;8.80;99.90;;;;;;5055965;28;20047;-90
2023/12/10 10:48:48;;;;;;;13.38;2.78;;;8.80;99.90;;;;;;5072546;28;20458;-90
2023/12/10 10:51:14;;;;;;;5.78;1.60;;;8.80;99.90;;;;;;5056187;28;20041;-90
2023/12/10 10:53:41;;;;;;;8.30;1.70;;;8.80;99.90;;;;;;5055861;28;20040;-90
2023/12/10 10:56:08;;;;;;;5.95;1.17;;;8.80;99.90;;;;;;5056080;28;20526;-89
2023/12/10 10:58:39;;;;;;;13.80;2.42;;;8.80;99.90;;;;;;5055188;28;20044;-90
2023/12/10 11:01:05;;;;;;;6.80;2.20;;;8.80;99.90;;;;;;5064274;28;20044;-90
2023/12/10 11:03:31;;;;;;;6.15;1.80;;;8.80;99.90;;;;;;5052950;28;20055;-90
2023/12/10 11:06:02;;;;;;;10.10;2.03;;;8.80;99.90;;;;;;5055930;28;20041;-90
2023/12/10 11:08:29;;;;;;;8.80;2.30;;;8.80;99.90;;;;;;5055733;28;20089;-90
2023/12/10 11:11:02;;;;;;;11.82;2.00;;;8.90;99.90;;;;;;5045901;28;20118;-90
2023/12/10 11:13:42;;;;;;;9.10;1.95;;;8.90;99.90;;;;;;5055960;28;20495;-91
2023/12/10 11:16:08;;;;;;;9.10;2.25;;;8.90;99.90;;;;;;5062980;28;20033;-90
2023/12/10 11:18:58;;;;;;;24.05;3.20;;;8.90;99.90;;;;;;5052940;28;20047;-91
2023/12/10 11:21:24;;;;;;;22.27;3.35;;;8.90;99.90;;;;;;5072036;28;20045;-90
2023/12/10 11:23:50;;;;;;;13.88;3.50;;;8.90;99.90;;;;;;5055750;28;20051;-90
2023/12/10 11:26:16;;;;;;;10.55;1.45;;;9.00;99.90;;;;;;5054252;28;20127;-90
2023/12/10 11:28:42;;;;;;;8.90;1.75;;;9.00;99.90;;;;;;5055244;28;20487;-91
2023/12/10 11:31:09;;;;;;;6.20;2.53;;;9.10;99.90;;;;;;5055266;28;20043;-91
2023/12/10 11:33:40;;;;;;;10.38;2.70;;;9.10;99.90;;;;;;5054990;28;20129;-90
2023/12/10 11:36:06;;;;;;;8.57;1.73;;;9.10;99.90;;;;;;5072727;28;20465;-90
2023/12/10 11:38:32;;;;;;;17.05;3.70;;;9.20;99.90;;;;;;5072034;28;20072;-90
2023/12/10 11:40:58;;;;;;;10.43;3.05;;;9.20;99.90;;;;;;5071561;28;20072;-90
2023/12/10 11:43:25;;;;;;;8.75;1.90;;;9.20;99.90;;;;;;5055617;28;20115;-90
2023/12/10 11:45:52;;;;;;;10.15;2.28;;;9.20;99.90;;;;;;5047240;28;20044;-90
2023/12/10 11:48:19;;;;;;;10.63;1.70;;;9.20;99.90;;;;;;5054940;28;20082;-90
2023/12/10 11:50:46;;;;;;;15.02;2.05;;;9.30;99.90;;;;;;5054492;28;20090;-90
2023/12/10 11:53:15;;;;;;;5.55;1.13;;;9.30;99.90;;;;;;5055048;28;20075;-90
2023/12/10 11:55:41;;;;;;;5.25;1.92;;;9.30;99.90;;;;;;5071530;28;20093;-91
2023/12/10 11:58:08;;;;;;;8.13;2.17;;;9.30;99.90;;;;;;5054739;28;20511;-90
2023/12/10 12:00:34;;;;;;;14.65;2.63;;;9.30;99.90;;;;;;5071230;28;20415;-91
2023/12/10 12:03:05;;;;;;;9.32;1.77;;;9.30;99.90;;;;;;5054701;28;20085;-91
2023/12/10 12:05:31;;;;;;;10.23;1.65;;;9.20;99.90;;;;;;5054989;28;20089;-91
2023/12/10 12:07:59;;;;;;;10.13;1.50;;;9.20;99.90;;;;;;5054913;28;20185;-90
2023/12/10 12:10:34;;;;;;;18.48;3.17;;;9.20;99.90;;;;;;5054520;28;20051;-91
2023/12/10 12:13:00;;;;;;;8.45;1.38;;;9.20;99.90;;;;;;5054494;28;20487;-91
2023/12/10 12:15:26;;;;;;;8.20;0.73;;;9.20;99.90;;;;;;5052749;28;20035;-89
2023/12/10 12:17:51;;;;;;;8.90;1.92;;;9.10;99.90;;;;;;5071706;28;20095;-91
2023/12/10 12:20:18;;;;;;;12.25;2.58;;;9.20;99.90;;;;;;5069030;28;20080;-91
2023/12/10 12:22:44;;;;;;;5.07;1.58;;;9.20;99.90;;;;;;5048423;28;20040;-91
2023/12/10 12:25:10;;;;;;;11.98;1.85;;;9.30;99.90;;;;;;5054731;28;20044;-91
2023/12/10 12:27:36;;;;;;;14.38;3.25;;;9.30;99.90;;;;;;5071221;28;20411;-91
2023/12/10 12:30:02;;;;;;;22.75;1.55;;;9.30;99.90;;;;;;5054111;28;20476;-91
2023/12/10 12:32:28;;;;;;;7.40;1.85;;;9.30;99.90;;;;;;5071201;28;20068;-92
2023/12/10 12:34:53;;;;;;;31.45;2.78;;;9.30;99.90;;;;;;5052755;28;20078;-91
2023/12/10 12:37:19;;;;;;;6.13;1.52;;;9.30;99.90;;;;;;5054148;28;20090;-92
2023/12/10 12:39:45;;;;;;;6.57;1.55;;;9.30;99.90;;;;;;5054749;28;20044;-92
2023/12/10 12:42:10;;;;;;;8.90;1.83;;;9.20;99.90;;;;;;5075140;28;20593;-91
2023/12/10 12:44:36;;;;;;;7.78;1.55;;;9.20;99.90;;;;;;5062845;28;20045;-91
2023/12/10 12:47:02;;;;;;;6.90;1.48;;;9.20;99.90;;;;;;5053659;28;20123;-92